Sunday, June 17, 2018, 10:12 PM EDT
Back to Local

KPVC, Provincetown, Provincetown Municipal Airport

Location: Provincetown, MA, United States Lat: 42.067
Local Time: 10:12 PM EDT ( 2:12 GMT) Lon: -70.217
Time Zone: US/Eastern Elev: 6 ft

Show me the last for .
Show Decoded

2018-06-17 21:56 METAR KPVC 180156Z AUTO 19008KT 10SM CLR 18/15 A3008 RMK AO2 SLP186 T01830150 =
2018-06-17 20:56 METAR KPVC 180056Z AUTO 19009KT 10SM CLR 19/14 A3008 RMK AO2 SLP187 T01940144 =
2018-06-17 19:56 METAR KPVC 172356Z AUTO 17008KT 10SM CLR 22/13 A3009 RMK AO2 SLP187 T02170133
                 10283 20217 58000 =
2018-06-17 19:23 METAR KPVC 172323Z AUTO 17008KT 10SM FEW001 22/13 A3009 RMK AO2 =
2018-06-17 18:56 METAR KPVC 172256Z AUTO 17009KT 10SM CLR 23/14 A3009 RMK AO2 SLP189 T02330139 =
2018-06-17 17:56 METAR KPVC 172156Z AUTO 19008KT 10SM FEW001 25/14 A3009 RMK AO2 SLP188 T02500139
                 =
2018-06-17 17:50 METAR KPVC 172150Z AUTO 17008KT 10SM FEW001 26/14 A3009 RMK AO2 =
2018-06-17 16:56 METAR KPVC 172056Z AUTO 17007KT 10SM CLR 27/14 A3008 RMK AO2 SLP186 T02720144
                 50002 =
2018-06-17 14:56 METAR KPVC 171856Z AUTO 06008KT 10SM CLR 27/14 A3008 RMK AO2 SLP185 T02670139 =
2018-06-17 13:56 METAR KPVC 171756Z AUTO 04006KT 10SM CLR 24/13 A3008 RMK AO2 SLP184 T02440133
                 10250 20194 58010 =
2018-06-17 12:56 METAR KPVC 171656Z AUTO 05007KT 10SM CLR 23/13 A3009 RMK AO2 SLP189 T02330128 =
2018-06-17 11:56 METAR KPVC 171556Z AUTO 32005KT 10SM CLR 21/13 A3011 RMK AO2 SLP196 T02060133 =
2018-06-17 10:56 METAR KPVC 171456Z AUTO 31004KT 10SM CLR 21/13 A3011 RMK AO2 SLP194 T02110128
                 53016 =
2018-06-17 09:56 METAR KPVC 171356Z AUTO 36004KT 10SM CLR 21/13 A3009 RMK AO2 SLP188 T02110128 =
2018-06-17 08:56 METAR KPVC 171256Z AUTO 32005KT 10SM CLR 21/13 A3007 RMK AO2 SLP183 T02060128 =
2018-06-17 07:56 METAR KPVC 171156Z AUTO 29003KT 10SM CLR 19/14 A3006 RMK AO2 SLP179 T01940139
                 10194 20139 53012 =
2018-06-17 06:56 METAR KPVC 171056Z AUTO 25003KT 7SM CLR 17/14 A3005 RMK AO2 SLP174 T01670144 =
2018-06-17 05:56 METAR KPVC 170956Z AUTO 25004KT 10SM CLR 14/13 A3003 RMK AO2 SLP169 T01390128 =
2018-06-17 04:56 METAR KPVC 170856Z AUTO 26004KT 10SM CLR 14/13 A3003 RMK AO2 SLP167 T01390128
                 53011 =
2018-06-17 03:56 METAR KPVC 170756Z AUTO 22006KT 10SM CLR 14/13 A3000 RMK AO2 SLP159 T01440128 =
2018-06-17 02:56 METAR KPVC 170656Z AUTO 22005KT 10SM CLR 15/13 A2999 RMK AO2 SLP156 T01500133 =
2018-06-17 01:56 METAR KPVC 170556Z AUTO 22005KT 10SM CLR 16/13 A2999 RMK AO2 SLP156 T01560133
                 10200 20150 58002 =
2018-06-17 00:56 METAR KPVC 170456Z AUTO 23005KT 10SM CLR 16/13 A3000 RMK AO2 SLP158 T01560133
                 402500128 =
2018-06-16 23:56 METAR KPVC 170356Z AUTO 24006KT 10SM CLR 16/14 A3001 RMK AO2 SLP161 T01610139 =
2018-06-16 22:56 METAR KPVC 170256Z AUTO 23007KT 10SM CLR 17/14 A3000 RMK AO2 SLP158 T01720144
                 51015 =

Support USWX by starting your Amazon purchase here.